Alta, West Virginia
Current Conditions -  °F | °C
As of 5:10 PM on Thursday 23 Oct 2014 (Local Time) from KLWB Reporting Station
Overcast Overcast  
Wind Chill: 47°   Ceiling: 2000
Heat Index: 49°   Visibility: 10mi
Dew Point: 40°   Wind: 5mph
Humidity: 71%   Direction: 350°N
Pressure: 30.09"   Gusts: NA
Location:  37.8345°N, 80.5736°W
Report Text: KLWB 232110Z AUTO 35004KT 10SM OVC020 10/05 A3009 RMK AO2 T00950045
Loading
Personal Weather Stations






























Interactive Weather Map
Tropical Storm Tracking
New forecast layout! Learn more

10-Day Weather Forecast

Advertisements
Track Severe Weather on mobile